createdAt,value
2018-12-10T00:02:02.845Z,92.38
2018-12-10T00:04:30.207Z,92.33
2018-12-10T00:06:57.564Z,92.03
2018-12-10T00:09:24.967Z,92.45
2018-12-10T00:11:52.337Z,92.19
2018-12-10T00:14:19.725Z,92.27
2018-12-10T00:16:47.093Z,92.24
2018-12-10T00:19:14.554Z,92.52
2018-12-10T00:21:41.943Z,92.53
2018-12-10T00:24:09.365Z,92.56
2018-12-10T00:26:43.804Z,92.44
2018-12-10T00:29:11.204Z,92.97
2018-12-10T00:31:38.577Z,92.46
2018-12-10T00:34:05.919Z,92.45
2018-12-10T00:36:33.296Z,91.84
2018-12-10T00:39:00.651Z,92.40
2018-12-10T00:41:29.041Z,92.04
2018-12-10T00:43:56.418Z,91.32
2018-12-10T00:46:23.865Z,91.79
2018-12-10T00:48:51.238Z,92.00
2018-12-10T00:51:18.594Z,92.59
2018-12-10T00:53:46.001Z,92.30
2018-12-10T00:56:13.380Z,91.81
2018-12-10T00:58:40.775Z,91.53
2018-12-10T01:01:08.122Z,92.37
2018-12-10T01:03:35.472Z,92.27
2018-12-10T01:06:02.853Z,91.64
2018-12-10T01:08:30.215Z,91.67
2018-12-10T01:10:57.556Z,91.25
2018-12-10T01:13:24.935Z,91.27
2018-12-10T01:15:52.358Z,90.42
2018-12-10T01:18:19.744Z,88.81
2018-12-10T01:20:47.068Z,90.42
2018-12-10T01:23:15.028Z,89.92
2018-12-10T01:25:42.343Z,89.70
2018-12-10T01:28:09.780Z,90.03
2018-12-10T01:30:37.131Z,90.66
2018-12-10T01:33:04.505Z,90.39
2018-12-10T01:35:32.358Z,90.91
2018-12-10T01:37:59.693Z,89.76
2018-12-10T01:40:27.098Z,89.56
2018-12-10T01:42:54.480Z,90.93
2018-12-10T01:45:21.839Z,91.07
2018-12-10T01:47:50.838Z,90.87
2018-12-10T01:50:18.281Z,90.51
2018-12-10T01:52:45.640Z,91.06
2018-12-10T01:55:13.006Z,91.13
2018-12-10T01:57:40.376Z,89.88
2018-12-10T02:00:07.986Z,91.44
2018-12-10T02:02:36.165Z,91.45
2018-12-10T02:05:03.726Z,91.03
2018-12-10T02:07:31.096Z,91.56
2018-12-10T02:09:58.431Z,91.19
2018-12-10T02:12:25.804Z,91.19
2018-12-10T02:14:53.163Z,92.70
2018-12-10T02:17:20.655Z,93.08
2018-12-10T02:19:48.005Z,93.06
2018-12-10T02:22:15.496Z,93.76
2018-12-10T02:24:42.871Z,93.27
2018-12-10T02:27:10.232Z,93.34
2018-12-10T02:29:38.108Z,94.75
2018-12-10T02:32:14.947Z,93.90
2018-12-10T02:34:42.278Z,94.78
2018-12-10T02:37:10.641Z,94.30
2018-12-10T02:39:38.712Z,93.86
2018-12-10T02:42:06.130Z,93.67
2018-12-10T02:44:33.499Z,93.86
2018-12-10T02:47:00.905Z,94.17
2018-12-10T02:49:28.752Z,93.02
2018-12-10T02:51:56.756Z,93.81
2018-12-10T02:54:24.119Z,93.99
2018-12-10T02:56:51.483Z,94.00
2018-12-10T02:59:18.861Z,93.24
2018-12-10T03:01:46.269Z,93.54
2018-12-10T03:04:13.640Z,93.09
2018-12-10T03:06:41.030Z,93.48
2018-12-10T03:09:08.398Z,92.46
2018-12-10T03:11:35.846Z,93.53
2018-12-10T03:14:03.423Z,93.28
2018-12-10T03:16:30.874Z,93.22
2018-12-10T03:18:58.257Z,93.44
2018-12-10T03:21:25.724Z,94.05
2018-12-10T03:23:53.135Z,92.70
2018-12-10T03:26:20.507Z,93.28
2018-12-10T03:28:47.932Z,93.43
2018-12-10T03:31:15.289Z,93.88
2018-12-10T03:33:42.742Z,92.99
2018-12-10T03:36:10.177Z,94.34
2018-12-10T03:38:37.512Z,93.53
2018-12-10T03:41:05.014Z,92.99
2018-12-10T03:43:32.436Z,92.46
2018-12-10T03:45:59.910Z,93.35
2018-12-10T03:48:27.330Z,93.08
2018-12-10T03:50:54.775Z,92.95
2018-12-10T03:53:22.156Z,92.63
2018-12-10T03:55:49.514Z,92.77
2018-12-10T03:58:16.854Z,92.50
2018-12-10T04:00:44.266Z,92.72
2018-12-10T04:03:11.623Z,91.86
2018-12-10T04:05:39.041Z,93.28
2018-12-10T04:08:06.421Z,93.14
2018-12-10T04:10:33.770Z,92.14
2018-12-10T04:13:01.312Z,92.14
2018-12-10T04:15:30.446Z,92.97
2018-12-10T04:17:57.807Z,92.98
2018-12-10T04:20:25.209Z,92.81
2018-12-10T04:22:52.618Z,93.45
2018-12-10T04:25:20.078Z,92.76
2018-12-10T04:27:47.437Z,92.58
2018-12-10T04:30:14.804Z,93.14
2018-12-10T04:32:42.195Z,92.91
2018-12-10T04:35:09.624Z,92.81
2018-12-10T04:37:36.994Z,92.68
2018-12-10T04:40:04.552Z,92.27
2018-12-10T04:42:31.942Z,92.45
2018-12-10T04:44:59.342Z,93.41
2018-12-10T04:47:26.723Z,92.58
2018-12-10T04:49:54.060Z,92.52
2018-12-10T04:52:21.518Z,92.71
2018-12-10T04:54:49.012Z,92.12
2018-12-10T04:57:16.445Z,93.09
2018-12-10T04:59:43.967Z,92.33
2018-12-10T05:02:11.313Z,92.93
2018-12-10T05:04:38.705Z,93.09
2018-12-10T05:07:06.068Z,92.52
2018-12-10T05:09:33.476Z,92.90
2018-12-10T05:12:00.851Z,92.86
2018-12-10T05:14:28.162Z,93.54
2018-12-10T05:16:55.586Z,92.94
2018-12-10T05:19:22.988Z,93.31
2018-12-10T05:21:50.362Z,93.61
2018-12-10T05:24:17.778Z,92.94
2018-12-10T05:26:45.148Z,93.71
2018-12-10T05:29:12.521Z,93.79
2018-12-10T05:31:39.902Z,93.10
2018-12-10T05:34:07.296Z,93.56
2018-12-10T05:36:35.009Z,92.49
2018-12-10T05:39:03.428Z,92.46
2018-12-10T05:41:30.821Z,94.35
2018-12-10T05:43:58.219Z,93.68
2018-12-10T05:46:25.582Z,93.71
2018-12-10T05:48:53.420Z,94.08
2018-12-10T05:51:20.804Z,94.79
2018-12-10T05:53:49.173Z,94.48
2018-12-10T05:56:16.591Z,94.36
2018-12-10T05:58:44.083Z,94.45
2018-12-10T06:01:11.487Z,94.80
2018-12-10T06:03:38.819Z,95.09
2018-12-10T06:06:07.496Z,94.57
2018-12-10T06:08:34.968Z,94.98
2018-12-10T06:11:02.906Z,95.12
2018-12-10T06:13:30.297Z,95.83
2018-12-10T06:15:58.179Z,95.27
2018-12-10T06:18:25.511Z,95.48
2018-12-10T06:20:52.980Z,95.93
2018-12-10T06:23:20.386Z,96.11
2018-12-10T06:25:47.801Z,95.14
2018-12-10T06:28:15.163Z,96.28
2018-12-10T06:30:42.519Z,96.54
2018-12-10T06:33:09.953Z,95.79
2018-12-10T06:35:37.888Z,95.60
2018-12-10T06:38:05.973Z,96.34
2018-12-10T06:40:33.498Z,96.31
2018-12-10T06:43:00.959Z,95.70
2018-12-10T06:45:28.353Z,95.65
2018-12-10T06:50:21.913Z,95.06
2018-12-10T06:52:49.273Z,95.01
2018-12-10T06:55:16.671Z,95.35
2018-12-10T06:57:44.131Z,95.13
2018-12-10T07:00:12.491Z,95.11
2018-12-10T07:02:39.945Z,96.01
2018-12-10T07:05:07.383Z,95.76
2018-12-10T07:07:34.741Z,95.66
2018-12-10T07:10:02.170Z,95.51
2018-12-10T07:12:29.525Z,95.87
2018-12-10T07:14:56.973Z,95.25
2018-12-10T07:17:24.337Z,96.38
2018-12-10T07:19:52.404Z,95.54
2018-12-10T07:22:19.810Z,95.48
2018-12-10T07:24:47.268Z,95.88
2018-12-10T07:27:14.691Z,96.18
2018-12-10T07:29:42.812Z,96.43
2018-12-10T07:32:10.906Z,96.23
2018-12-10T07:34:38.344Z,96.69
2018-12-10T07:37:05.727Z,96.27
2018-12-10T07:39:33.106Z,96.15
2018-12-10T07:42:00.516Z,96.81
2018-12-10T07:44:27.978Z,95.82
2018-12-10T07:46:55.444Z,96.98
2018-12-10T07:49:22.799Z,96.17
2018-12-10T07:51:50.211Z,96.45
2018-12-10T07:54:17.625Z,95.75
2018-12-10T07:56:45.011Z,95.79
2018-12-10T07:59:12.418Z,96.30
2018-12-10T08:01:39.777Z,96.73
2018-12-10T08:04:07.198Z,96.31
2018-12-10T08:06:34.583Z,96.28
2018-12-10T08:09:02.004Z,97.08
2018-12-10T08:11:29.358Z,95.88
2018-12-10T08:13:56.826Z,96.62
2018-12-10T08:16:24.211Z,95.53
2018-12-10T08:18:51.767Z,95.66
2018-12-10T08:21:19.220Z,95.71
2018-12-10T08:23:46.618Z,95.05
2018-12-10T08:26:14.117Z,95.17
2018-12-10T08:28:41.492Z,94.57
2018-12-10T08:31:08.876Z,93.32
2018-12-10T08:33:36.436Z,93.16
2018-12-10T08:36:03.995Z,93.42
2018-12-10T08:38:31.911Z,92.51
2018-12-10T08:40:59.326Z,92.80
2018-12-10T08:43:26.697Z,93.25
2018-12-10T08:45:54.019Z,92.87
2018-12-10T08:48:21.433Z,93.78
2018-12-10T08:50:48.888Z,91.91
2018-12-10T08:53:16.267Z,91.32
2018-12-10T08:55:43.672Z,91.67
2018-12-10T08:58:11.169Z,92.34
2018-12-10T09:00:38.553Z,91.55
2018-12-10T09:03:05.934Z,92.12
2018-12-10T09:05:33.368Z,92.11
2018-12-10T09:08:00.767Z,92.01
2018-12-10T09:10:28.146Z,91.76
2018-12-10T09:12:56.164Z,91.62
2018-12-10T09:15:23.685Z,92.13
2018-12-10T09:17:51.047Z,91.07
2018-12-10T09:20:18.415Z,91.44
2018-12-10T09:29:40.062Z,91.25
2018-12-10T09:32:07.652Z,89.78
2018-12-10T09:34:35.026Z,90.15
2018-12-10T09:37:02.626Z,90.07
2018-12-10T09:39:30.259Z,91.05
2018-12-10T09:41:57.866Z,91.73
2018-12-10T09:44:25.252Z,89.77
2018-12-10T09:46:58.952Z,89.98
2018-12-10T09:49:22.047Z,89.74
2018-12-10T09:51:49.523Z,89.08
2018-12-10T09:54:16.905Z,89.83
2018-12-10T09:56:44.290Z,89.62
2018-12-10T09:59:12.363Z,89.14
2018-12-10T10:01:39.825Z,89.69
2018-12-10T10:04:07.896Z,89.43
2018-12-10T10:06:35.942Z,89.79
2018-12-10T10:09:05.414Z,89.37
2018-12-10T10:11:32.797Z,90.47
2018-12-10T10:14:00.223Z,90.95
2018-12-10T10:16:27.811Z,90.40
2018-12-10T10:18:55.198Z,90.70
2018-12-10T10:21:23.228Z,89.58
2018-12-10T10:23:51.294Z,89.90
2018-12-10T10:26:18.668Z,89.87
2018-12-10T10:28:46.628Z,89.13
2018-12-10T10:31:14.068Z,87.24
2018-12-10T10:33:41.432Z,87.41
2018-12-10T10:36:08.817Z,88.11
2018-12-10T10:38:36.299Z,87.94
2018-12-10T10:41:04.431Z,87.15
2018-12-10T10:46:11.304Z,87.94
2018-12-10T10:48:39.376Z,88.88
2018-12-10T10:51:06.803Z,87.75
2018-12-10T10:53:34.200Z,86.93
2018-12-10T10:56:01.726Z,85.84
2018-12-10T10:58:29.337Z,85.70
2018-12-10T11:01:02.453Z,86.76
2018-12-10T11:03:35.486Z,85.62
2018-12-10T11:06:02.923Z,86.38
2018-12-10T11:08:30.283Z,87.53
2018-12-10T11:10:57.676Z,86.36
2018-12-10T11:13:25.057Z,86.88
2018-12-10T11:15:52.431Z,86.96
2018-12-10T11:18:19.810Z,87.69
2018-12-10T11:20:47.982Z,88.04
2018-12-10T11:23:15.549Z,88.33
2018-12-10T11:25:43.004Z,88.26
2018-12-10T11:28:10.388Z,88.74
2018-12-10T11:30:37.749Z,89.68
2018-12-10T11:33:05.128Z,88.44
2018-12-10T11:35:33.175Z,87.72
2018-12-10T11:38:00.585Z,85.79
2018-12-10T11:40:28.652Z,88.20
2018-12-10T11:42:56.047Z,86.85
2018-12-10T11:45:23.446Z,88.02
2018-12-10T11:47:50.819Z,87.31
2018-12-10T11:50:18.337Z,87.52
2018-12-10T11:52:46.028Z,86.89
2018-12-10T11:55:13.467Z,88.40
2018-12-10T11:57:40.888Z,88.62
2018-12-10T12:00:09.956Z,88.10
2018-12-10T12:02:38.059Z,87.77
2018-12-10T12:05:05.766Z,88.01
2018-12-10T12:10:10.704Z,89.19
2018-12-10T12:12:38.094Z,88.83
2018-12-10T12:15:06.348Z,90.19
2018-12-10T12:17:33.764Z,90.01
2018-12-10T12:20:01.161Z,91.48
2018-12-10T12:22:28.674Z,90.51
2018-12-10T12:24:56.168Z,88.48
2018-12-10T12:27:23.907Z,87.58
2018-12-10T12:29:51.477Z,85.87
2018-12-10T12:32:18.892Z,85.08
2018-12-10T12:34:47.677Z,85.96
2018-12-10T12:37:16.203Z,85.01
2018-12-10T12:39:43.554Z,85.09
2018-12-10T12:42:11.003Z,83.63
2018-12-10T12:44:38.387Z,83.97
2018-12-10T12:47:05.817Z,84.69
2018-12-10T12:49:33.231Z,84.54
2018-12-10T12:52:00.716Z,82.65
2018-12-10T12:54:28.138Z,80.53
2018-12-10T12:56:55.545Z,80.07
2018-12-10T12:59:22.959Z,80.19
2018-12-10T13:01:50.343Z,81.09
2018-12-10T13:04:17.744Z,81.15
2018-12-10T13:06:45.103Z,82.29
2018-12-10T13:09:12.557Z,81.36
2018-12-10T13:11:39.913Z,82.12
2018-12-10T13:14:07.363Z,83.84
2018-12-10T13:16:34.738Z,83.54
2018-12-10T13:19:02.151Z,83.94
2018-12-10T13:21:29.485Z,83.75
2018-12-10T13:23:56.904Z,85.41
2018-12-10T13:26:24.277Z,84.29
2018-12-10T13:28:51.750Z,85.28
2018-12-10T13:31:19.212Z,85.78
2018-12-10T13:33:46.578Z,84.96
2018-12-10T13:36:13.980Z,85.36
2018-12-10T13:38:41.327Z,84.62
2018-12-10T13:41:08.797Z,84.49
2018-12-10T13:43:36.153Z,83.22
2018-12-10T13:46:03.563Z,84.85
2018-12-10T13:48:30.991Z,81.55
2018-12-10T13:50:58.408Z,81.09
2018-12-10T13:53:25.755Z,81.77
2018-12-10T13:55:53.154Z,80.51
2018-12-10T13:58:20.494Z,81.63
2018-12-10T14:00:51.036Z,82.22
2018-12-10T14:03:17.597Z,81.68
2018-12-10T14:05:47.546Z,80.55
2018-12-10T14:08:14.353Z,77.70
2018-12-10T14:10:41.798Z,77.19
2018-12-10T14:13:09.111Z,74.37
2018-12-10T14:15:36.519Z,74.64
2018-12-10T14:18:04.096Z,70.76
2018-12-10T14:20:31.511Z,67.29
2018-12-10T14:22:59.729Z,65.39
2018-12-10T14:25:27.453Z,63.90
2018-12-10T14:27:54.893Z,63.83
2018-12-10T14:30:22.489Z,65.09
2018-12-10T14:32:49.910Z,67.91
2018-12-10T14:35:17.250Z,70.95
2018-12-10T14:37:44.730Z,73.02
2018-12-10T14:40:12.633Z,75.68
2018-12-10T14:42:49.474Z,75.78
2018-12-10T14:45:17.101Z,76.53
2018-12-10T14:47:46.642Z,79.24
2018-12-10T14:50:14.065Z,77.64
2018-12-10T14:52:41.439Z,79.01
2018-12-10T14:55:08.870Z,78.25
2018-12-10T14:57:36.285Z,79.26
2018-12-10T15:00:03.999Z,80.40
2018-12-10T15:02:31.350Z,80.99
2018-12-10T15:04:58.764Z,79.81
2018-12-10T15:07:26.133Z,81.12
2018-12-10T15:09:53.538Z,80.67
2018-12-10T15:12:20.928Z,80.79
2018-12-10T15:14:48.323Z,81.51
2018-12-10T15:17:15.675Z,80.60
2018-12-10T15:19:43.060Z,81.54
2018-12-10T15:22:10.446Z,81.35
2018-12-10T15:24:37.864Z,81.14
2018-12-10T15:27:05.222Z,80.08
2018-12-10T15:29:32.634Z,80.34
2018-12-10T15:32:00.038Z,80.16
2018-12-10T15:34:27.384Z,81.49
2018-12-10T15:36:54.784Z,82.20
2018-12-10T15:39:22.186Z,82.52
2018-12-10T15:41:49.585Z,82.40
2018-12-10T15:44:16.973Z,82.95
2018-12-10T15:46:44.403Z,82.72
2018-12-10T15:49:11.741Z,82.92
2018-12-10T15:51:39.138Z,83.58
2018-12-10T15:54:06.484Z,83.20
2018-12-10T15:56:33.880Z,83.68
2018-12-10T15:59:01.309Z,83.67
2018-12-10T16:01:28.769Z,83.47
2018-12-10T16:03:56.131Z,83.24
2018-12-10T16:06:23.525Z,84.03
2018-12-10T16:08:50.911Z,83.92
2018-12-10T16:11:18.369Z,84.08
2018-12-10T16:13:45.791Z,84.36
2018-12-10T16:16:13.197Z,84.05
2018-12-10T16:18:40.649Z,83.53
2018-12-10T16:21:08.016Z,84.15
2018-12-10T16:23:35.465Z,83.24
2018-12-10T16:26:02.824Z,83.52
2018-12-10T16:28:30.235Z,83.62
2018-12-10T16:30:57.846Z,83.98
2018-12-10T16:33:25.279Z,83.55
2018-12-10T16:35:52.929Z,85.48
2018-12-10T16:38:20.340Z,86.06
2018-12-10T16:40:47.701Z,89.58
2018-12-10T16:43:15.125Z,90.75
2018-12-10T16:45:42.664Z,90.75
2018-12-10T16:48:10.080Z,90.81
2018-12-10T16:50:37.502Z,91.73
2018-12-10T16:53:04.915Z,92.50
2018-12-10T16:55:32.340Z,92.94
2018-12-10T16:57:59.678Z,93.56
2018-12-10T17:00:27.044Z,92.72
2018-12-10T17:02:54.517Z,94.14
2018-12-10T17:05:26.475Z,94.07
2018-12-10T17:07:53.877Z,93.11
2018-12-10T17:10:21.306Z,93.51
2018-12-10T17:12:48.720Z,92.84
2018-12-10T17:15:16.177Z,93.37
2018-12-10T17:17:43.655Z,92.64
2018-12-10T17:20:11.079Z,92.18
2018-12-10T17:22:38.534Z,91.95
2018-12-10T17:25:06.391Z,92.27
2018-12-10T17:27:33.850Z,92.01
2018-12-10T17:30:01.207Z,92.89
2018-12-10T17:32:28.596Z,92.78
2018-12-10T17:34:56.011Z,92.36
2018-12-10T17:37:23.527Z,91.60
2018-12-10T17:39:50.927Z,93.26
2018-12-10T17:42:18.402Z,92.03
2018-12-10T17:44:45.794Z,92.58
2018-12-10T17:47:13.249Z,92.23
2018-12-10T17:49:41.006Z,90.64
2018-12-10T17:52:08.550Z,91.44
2018-12-10T17:54:35.914Z,91.05
2018-12-10T18:00:01.767Z,90.45
2018-12-10T18:02:29.182Z,90.63
2018-12-10T18:04:57.194Z,91.29
2018-12-10T18:07:24.613Z,90.02
2018-12-10T18:09:52.000Z,90.74
2018-12-10T18:12:19.421Z,90.90
2018-12-10T18:14:46.845Z,90.39
2018-12-10T18:17:14.257Z,90.72
2018-12-10T18:19:41.664Z,89.92
2018-12-10T18:22:09.030Z,90.48
2018-12-10T18:24:36.378Z,89.97
2018-12-10T18:27:03.967Z,90.50
2018-12-10T18:29:31.400Z,90.95
2018-12-10T18:31:58.803Z,90.43
2018-12-10T18:34:26.272Z,90.50
2018-12-10T18:36:53.737Z,90.89
2018-12-10T18:39:21.206Z,90.80
2018-12-10T18:41:48.662Z,91.89
2018-12-10T18:44:16.107Z,90.88
2018-12-10T18:46:43.523Z,90.56
2018-12-10T18:49:10.926Z,91.65
2018-12-10T18:51:38.332Z,91.09
2018-12-10T18:54:05.771Z,91.03
2018-12-10T18:56:33.168Z,89.07
2018-12-10T18:59:00.637Z,88.15
2018-12-10T19:01:28.016Z,89.54
2018-12-10T19:03:55.398Z,88.96
2018-12-10T19:06:22.921Z,89.87
2018-12-10T19:08:51.416Z,89.43
2018-12-10T19:11:19.112Z,89.40
2018-12-10T19:13:49.932Z,89.31
2018-12-10T19:16:15.953Z,88.83
2018-12-10T19:18:43.322Z,89.81
2018-12-10T19:21:10.776Z,89.60
2018-12-10T19:23:38.848Z,89.71
2018-12-10T19:26:06.362Z,90.29
2018-12-10T19:28:33.800Z,89.89
2018-12-10T19:31:01.290Z,91.18
2018-12-10T19:33:28.722Z,90.23
2018-12-10T19:35:56.117Z,90.57
2018-12-10T19:38:23.510Z,90.24
2018-12-10T19:40:51.038Z,90.73
2018-12-10T19:43:18.417Z,90.38
2018-12-10T19:45:45.891Z,90.71
2018-12-10T19:48:13.373Z,92.58
2018-12-10T19:50:40.762Z,91.82
2018-12-10T19:53:08.186Z,92.22
2018-12-10T19:55:35.601Z,91.11
2018-12-10T19:58:03.044Z,92.12
2018-12-10T20:00:30.496Z,93.06
2018-12-10T20:02:57.910Z,94.89
2018-12-10T20:05:30.981Z,95.02
2018-12-10T20:07:58.532Z,95.48
2018-12-10T20:10:26.051Z,96.63
2018-12-10T20:12:54.178Z,96.60
2018-12-10T20:15:21.735Z,96.42
2018-12-10T20:17:49.126Z,95.09
2018-12-10T20:20:16.723Z,95.91
2018-12-10T20:22:44.112Z,95.51
2018-12-10T20:25:11.697Z,94.46
2018-12-10T20:27:39.126Z,94.43
2018-12-10T20:30:06.860Z,94.26
2018-12-10T20:32:34.347Z,94.04
2018-12-10T20:35:02.540Z,94.05
2018-12-10T20:37:30.182Z,94.39
2018-12-10T20:39:57.590Z,94.65
2018-12-10T20:42:25.698Z,94.86
2018-12-10T20:44:53.256Z,93.30
2018-12-10T20:47:20.678Z,92.50
2018-12-10T20:49:48.133Z,93.65
2018-12-10T20:52:15.676Z,93.91
2018-12-10T20:54:43.239Z,94.20
2018-12-10T20:57:11.919Z,93.95
2018-12-10T20:59:39.390Z,93.25
2018-12-10T21:02:06.764Z,93.66
2018-12-10T21:04:34.221Z,93.50
2018-12-10T21:07:01.642Z,93.86
2018-12-10T21:09:29.105Z,93.47
2018-12-10T21:11:56.518Z,93.82
2018-12-10T21:14:23.940Z,92.66
2018-12-10T21:16:51.324Z,93.26
2018-12-10T21:19:18.781Z,92.56
2018-12-10T21:21:46.229Z,93.81
2018-12-10T21:24:13.721Z,94.80
2018-12-10T21:26:41.274Z,94.36
2018-12-10T21:29:08.647Z,94.84
2018-12-10T21:31:36.078Z,94.71
2018-12-10T21:34:03.697Z,95.03
2018-12-10T21:36:31.117Z,94.78
2018-12-10T21:38:58.566Z,95.12
2018-12-10T21:41:26.769Z,94.39
2018-12-10T21:43:54.741Z,95.00
2018-12-10T21:46:23.147Z,95.16
2018-12-10T21:48:50.808Z,94.80
2018-12-10T21:51:18.786Z,93.48
2018-12-10T21:53:46.374Z,93.00
2018-12-10T21:56:14.193Z,93.89
2018-12-10T21:58:42.387Z,94.55
2018-12-10T22:01:10.122Z,94.23
2018-12-10T22:03:37.677Z,93.73
2018-12-10T22:06:05.862Z,94.09
2018-12-10T22:08:33.242Z,93.58
2018-12-10T22:11:00.631Z,92.99
2018-12-10T22:13:28.503Z,92.25
2018-12-10T22:15:56.861Z,92.54
2018-12-10T22:18:24.316Z,91.50
2018-12-10T22:20:51.741Z,92.37
2018-12-10T22:23:19.728Z,92.77
2018-12-10T22:25:47.158Z,92.38
2018-12-10T22:28:14.578Z,91.68
2018-12-10T22:30:41.956Z,92.74
2018-12-10T22:33:09.353Z,91.60
2018-12-10T22:35:38.281Z,89.48
2018-12-10T22:38:05.671Z,90.12
2018-12-10T22:40:33.296Z,90.16
2018-12-10T22:43:00.802Z,89.87
2018-12-10T22:45:28.189Z,89.58
2018-12-10T22:47:55.611Z,90.49
2018-12-10T22:50:23.024Z,91.10
2018-12-10T22:52:50.462Z,91.15
2018-12-10T22:55:17.852Z,91.46
2018-12-10T22:57:45.273Z,91.85
2018-12-10T23:00:12.652Z,92.49
2018-12-10T23:02:40.162Z,92.41
2018-12-10T23:05:07.801Z,91.91
2018-12-10T23:07:35.203Z,90.81
2018-12-10T23:10:03.177Z,92.46
2018-12-10T23:12:30.583Z,92.02
2018-12-10T23:14:58.019Z,91.66
2018-12-10T23:17:25.421Z,92.30
2018-12-10T23:19:52.841Z,90.87
2018-12-10T23:22:20.259Z,90.18
2018-12-10T23:24:47.589Z,90.79
2018-12-10T23:27:15.072Z,91.72
2018-12-10T23:29:42.485Z,92.45
2018-12-10T23:32:09.907Z,91.94
2018-12-10T23:34:37.288Z,91.81
2018-12-10T23:37:04.652Z,92.05
2018-12-10T23:39:33.230Z,91.94
2018-12-10T23:42:00.698Z,92.68
2018-12-10T23:44:33.772Z,92.29
2018-12-10T23:47:01.176Z,92.46
2018-12-10T23:49:28.583Z,92.50
2018-12-10T23:51:56.028Z,92.38
2018-12-10T23:54:23.424Z,92.67
2018-12-10T23:56:50.782Z,92.26
2018-12-10T23:59:18.222Z,91.80
